Time;durP1;ratioP1;P1;durP2;ratioP2;P2;SDS_P1;SDS_P2;PMS_P1;PMS_P2;Temp;Humidity;BMP_temperature;BMP_pressure;BME280_temperature;BME280_humidity;BME280_pressure;Samples;Min_cycle;Max_cycle;Signal;HPM_P1;HPM_P2
2023/10/27 00:00:55;;;;;;;4.10;0.90;;;12.20;99.90;;;;;;5008661;28;20050;-80
2023/10/27 00:03:22;;;;;;;3.30;0.80;;;12.20;99.90;;;;;;5011424;28;20058;-81
2023/10/27 00:05:49;;;;;;;6.03;1.00;;;12.20;99.90;;;;;;5008124;28;20054;-80
2023/10/27 00:08:16;;;;;;;3.58;1.00;;;12.20;99.90;;;;;;5014018;28;20050;-80
2023/10/27 00:10:42;;;;;;;2.38;0.70;;;12.20;99.90;;;;;;5009573;28;20077;-79
2023/10/27 00:13:09;;;;;;;2.05;0.68;;;12.20;99.90;;;;;;5006686;28;20069;-82
2023/10/27 00:15:36;;;;;;;1.98;0.50;;;12.20;99.90;;;;;;5010899;28;20081;-80
2023/10/27 00:18:03;;;;;;;1.23;0.73;;;12.20;99.90;;;;;;5011901;28;20136;-80
2023/10/27 00:20:31;;;;;;;3.53;0.80;;;12.20;99.90;;;;;;5009090;28;20050;-80
2023/10/27 00:22:58;;;;;;;2.95;0.90;;;12.20;99.90;;;;;;5004898;28;20078;-80
2023/10/27 00:25:25;;;;;;;1.35;0.68;;;12.20;99.90;;;;;;5009730;28;20104;-80
2023/10/27 00:27:52;;;;;;;2.45;0.60;;;12.20;99.90;;;;;;5004171;28;20054;-80
2023/10/27 00:30:18;;;;;;;0.73;0.40;;;12.10;99.90;;;;;;5008955;28;20070;-80
2023/10/27 00:32:46;;;;;;;4.15;0.70;;;12.10;99.90;;;;;;5014626;28;20093;-80
2023/10/27 00:35:13;;;;;;;2.08;0.40;;;12.10;99.90;;;;;;5013772;28;20410;-80
2023/10/27 00:37:40;;;;;;;3.55;0.50;;;12.10;99.90;;;;;;5007397;28;20054;-81
2023/10/27 00:40:08;;;;;;;2.33;0.55;;;12.10;99.90;;;;;;5014054;28;20054;-80
2023/10/27 00:42:35;;;;;;;2.63;0.70;;;12.10;99.90;;;;;;5009083;28;20500;-80
2023/10/27 00:45:02;;;;;;;3.38;0.55;;;12.10;99.90;;;;;;5016124;28;20101;-80
2023/10/27 00:47:30;;;;;;;3.92;0.70;;;12.10;99.90;;;;;;5012650;28;20038;-80
2023/10/27 00:49:58;;;;;;;0.73;0.55;;;12.10;99.90;;;;;;5013279;28;20081;-80
2023/10/27 00:52:26;;;;;;;2.00;0.50;;;12.10;99.90;;;;;;5005121;28;20038;-80
2023/10/27 00:54:54;;;;;;;2.85;0.60;;;12.10;99.90;;;;;;5011869;28;20494;-80
2023/10/27 00:57:23;;;;;;;5.82;0.75;;;12.00;99.90;;;;;;5011038;28;20043;-80
2023/10/27 00:59:52;;;;;;;6.80;0.85;;;12.00;99.90;;;;;;5014354;28;20630;-80
2023/10/27 01:02:21;;;;;;;0.55;0.47;;;12.00;99.90;;;;;;5011347;28;20046;-80
2023/10/27 01:04:49;;;;;;;1.70;0.50;;;12.00;99.90;;;;;;5013376;28;20420;-80
2023/10/27 01:07:16;;;;;;;5.20;0.57;;;12.00;99.90;;;;;;5011723;28;20413;-80
2023/10/27 01:09:44;;;;;;;1.75;0.68;;;12.10;99.90;;;;;;5009995;28;20048;-80
2023/10/27 01:12:11;;;;;;;3.17;0.77;;;12.10;99.90;;;;;;5011519;28;20084;-79
2023/10/27 01:14:38;;;;;;;1.50;0.80;;;12.10;99.90;;;;;;5016766;28;20486;-81
2023/10/27 01:17:05;;;;;;;4.25;1.98;;;12.10;99.90;;;;;;5012865;28;20057;-80
2023/10/27 01:19:32;;;;;;;3.35;1.13;;;12.10;99.90;;;;;;5012707;28;20050;-80
2023/10/27 01:21:59;;;;;;;3.63;1.00;;;12.10;99.90;;;;;;5006606;28;20042;-80
2023/10/27 01:24:27;;;;;;;5.68;1.50;;;12.10;99.90;;;;;;5012606;28;20482;-80
2023/10/27 01:26:55;;;;;;;4.38;1.40;;;12.10;99.90;;;;;;5014911;28;20472;-80
2023/10/27 01:29:27;;;;;;;5.57;1.30;;;12.10;99.90;;;;;;5013607;28;20069;-80
2023/10/27 01:31:55;;;;;;;3.80;1.58;;;12.10;99.90;;;;;;5010407;28;20043;-80
2023/10/27 01:34:22;;;;;;;6.07;1.73;;;12.10;99.90;;;;;;5011651;28;20038;-80
2023/10/27 01:36:49;;;;;;;5.65;1.55;;;12.10;99.90;;;;;;5006564;28;20073;-80
2023/10/27 01:39:16;;;;;;;5.53;1.48;;;12.10;99.90;;;;;;5010440;28;20053;-80
2023/10/27 01:41:43;;;;;;;3.22;0.68;;;12.20;99.90;;;;;;5000150;28;20065;-82
2023/10/27 01:44:10;;;;;;;2.25;0.65;;;12.10;99.90;;;;;;5013253;28;20128;-80
2023/10/27 01:46:36;;;;;;;2.83;0.82;;;12.10;99.90;;;;;;5008427;28;20046;-80
2023/10/27 01:49:03;;;;;;;2.40;0.68;;;12.10;99.90;;;;;;5012344;28;20078;-80
2023/10/27 01:51:30;;;;;;;1.45;0.52;;;12.10;99.90;;;;;;5006753;28;20070;-80
2023/10/27 01:53:57;;;;;;;3.80;0.60;;;12.10;99.90;;;;;;5009778;28;20085;-80
2023/10/27 01:56:24;;;;;;;5.07;0.60;;;12.10;99.90;;;;;;5014222;28;20049;-80
2023/10/27 01:58:50;;;;;;;2.70;0.70;;;12.10;99.90;;;;;;5013652;28;20066;-80
2023/10/27 02:01:18;;;;;;;1.75;0.40;;;12.10;99.90;;;;;;5008198;28;20468;-80
2023/10/27 02:03:45;;;;;;;1.15;0.32;;;12.10;99.90;;;;;;5010589;28;20042;-81
2023/10/27 02:06:12;;;;;;;1.48;0.73;;;12.10;99.90;;;;;;5007354;28;20046;-80
2023/10/27 02:08:38;;;;;;;4.88;0.73;;;12.10;99.90;;;;;;5011914;28;20054;-80
2023/10/27 02:11:05;;;;;;;0.77;0.47;;;12.10;99.90;;;;;;5012481;28;20047;-80
2023/10/27 02:13:32;;;;;;;1.70;0.65;;;12.10;99.90;;;;;;5014479;28;20046;-80
2023/10/27 02:15:59;;;;;;;1.85;0.50;;;12.10;99.90;;;;;;5008372;28;20046;-81
2023/10/27 02:18:26;;;;;;;2.08;0.57;;;12.10;99.90;;;;;;5011027;28;20049;-80
2023/10/27 02:20:54;;;;;;;1.05;0.50;;;12.00;99.90;;;;;;5007495;28;20050;-80
2023/10/27 02:23:20;;;;;;;1.10;0.50;;;12.00;99.90;;;;;;5008419;28;20054;-80
2023/10/27 02:25:47;;;;;;;1.88;0.60;;;11.90;99.90;;;;;;5010410;28;20489;-80
2023/10/27 02:28:14;;;;;;;0.55;0.40;;;11.90;99.90;;;;;;5012233;28;20457;-80
2023/10/27 02:30:41;;;;;;;1.00;0.60;;;11.80;99.90;;;;;;5005208;28;20505;-80
2023/10/27 02:33:07;;;;;;;2.92;0.35;;;11.80;99.90;;;;;;5008372;28;20076;-79
2023/10/27 02:35:34;;;;;;;0.45;0.30;;;11.80;99.90;;;;;;5008034;28;20137;-80
2023/10/27 02:38:04;;;;;;;2.45;0.40;;;11.80;99.90;;;;;;5004943;28;20046;-79
2023/10/27 02:40:31;;;;;;;0.93;0.50;;;11.80;99.90;;;;;;5005404;28;20049;-80
2023/10/27 02:42:58;;;;;;;1.80;0.30;;;11.80;99.90;;;;;;5005517;28;20049;-79
2023/10/27 02:45:27;;;;;;;0.53;0.40;;;11.90;99.90;;;;;;4999715;28;20042;-80
2023/10/27 02:47:54;;;;;;;1.42;0.90;;;11.90;99.90;;;;;;5002245;28;20465;-80
2023/10/27 02:50:21;;;;;;;0.57;0.30;;;11.90;99.90;;;;;;5002429;28;20497;-80
2023/10/27 02:52:47;;;;;;;0.43;0.30;;;11.90;99.90;;;;;;5003016;28;20490;-79
2023/10/27 02:55:14;;;;;;;1.20;0.30;;;11.90;99.90;;;;;;5007895;28;20046;-79
2023/10/27 02:57:41;;;;;;;2.38;0.52;;;11.90;99.90;;;;;;5004505;28;20053;-80
2023/10/27 03:00:08;;;;;;;1.05;0.40;;;12.00;99.90;;;;;;5000751;28;20050;-80
2023/10/27 03:02:35;;;;;;;1.17;0.40;;;12.00;99.90;;;;;;5000710;28;20101;-79
2023/10/27 03:05:02;;;;;;;0.30;0.30;;;12.00;99.90;;;;;;5007030;28;20057;-80
2023/10/27 03:07:29;;;;;;;1.67;0.50;;;12.00;99.90;;;;;;5005823;28;20060;-80
2023/10/27 03:09:56;;;;;;;0.43;0.25;;;12.00;99.90;;;;;;5005752;28;20042;-80
2023/10/27 03:12:23;;;;;;;0.50;0.30;;;12.10;99.90;;;;;;5010454;28;20046;-80
2023/10/27 03:14:49;;;;;;;0.20;0.20;;;12.10;99.90;;;;;;5005020;28;20391;-80
2023/10/27 03:17:16;;;;;;;0.80;0.50;;;12.10;99.90;;;;;;5001116;28;20494;-80
2023/10/27 03:19:43;;;;;;;3.08;0.40;;;12.10;99.90;;;;;;5000871;28;20454;-80
2023/10/27 03:22:10;;;;;;;3.22;0.30;;;12.10;99.90;;;;;;5008079;28;20480;-79
2023/10/27 03:24:37;;;;;;;0.85;0.50;;;12.10;99.90;;;;;;5001518;28;20046;-79
2023/10/27 03:27:04;;;;;;;0.55;0.40;;;12.10;99.90;;;;;;5006144;28;20512;-81
2023/10/27 03:29:30;;;;;;;0.30;0.30;;;12.10;99.90;;;;;;5005078;28;20049;-80
2023/10/27 03:31:57;;;;;;;0.95;0.30;;;12.10;99.90;;;;;;4996901;28;20081;-80
2023/10/27 03:34:24;;;;;;;0.20;0.20;;;12.10;99.90;;;;;;4999448;28;20493;-80
2023/10/27 03:36:51;;;;;;;0.93;0.20;;;12.10;99.90;;;;;;5009615;28;20042;-80
2023/10/27 03:39:18;;;;;;;1.33;0.40;;;12.10;99.90;;;;;;5005291;28;20057;-80
2023/10/27 03:41:44;;;;;;;0.38;0.30;;;12.10;99.90;;;;;;5004698;28;20060;-80
2023/10/27 03:44:11;;;;;;;0.50;0.30;;;12.10;99.90;;;;;;5004735;28;20082;-80
2023/10/27 03:46:38;;;;;;;0.20;0.20;;;12.10;99.90;;;;;;5012980;28;20128;-80
2023/10/27 03:49:05;;;;;;;0.60;0.25;;;12.10;99.90;;;;;;5006313;28;20121;-80
2023/10/27 03:51:32;;;;;;;0.30;0.30;;;12.10;99.90;;;;;;5010680;28;20052;-79
2023/10/27 03:53:59;;;;;;;1.50;0.20;;;12.10;99.90;;;;;;5006467;28;20101;-81
2023/10/27 03:56:26;;;;;;;1.27;0.50;;;12.10;99.90;;;;;;5007073;28;20074;-80
2023/10/27 03:58:53;;;;;;;0.45;0.43;;;12.10;99.90;;;;;;5007901;28;20085;-80
2023/10/27 04:01:20;;;;;;;0.50;0.45;;;12.10;99.90;;;;;;5003635;28;20591;-80
2023/10/27 04:03:47;;;;;;;0.75;0.38;;;12.10;99.90;;;;;;5012207;28;20124;-80
2023/10/27 04:06:13;;;;;;;0.85;0.30;;;12.10;99.90;;;;;;5013218;28;20050;-80
2023/10/27 04:08:40;;;;;;;0.73;0.30;;;12.00;99.90;;;;;;5006071;28;20047;-80
2023/10/27 04:11:07;;;;;;;0.63;0.52;;;12.00;99.90;;;;;;5007011;28;20050;-79
2023/10/27 04:13:34;;;;;;;0.52;0.50;;;12.00;99.90;;;;;;5007345;28;20092;-80
2023/10/27 04:16:01;;;;;;;1.08;0.70;;;12.00;99.90;;;;;;5003950;28;20074;-80
2023/10/27 04:18:28;;;;;;;0.63;0.50;;;11.90;99.90;;;;;;5013802;28;20049;-80
2023/10/27 04:20:55;;;;;;;0.50;0.50;;;11.90;99.90;;;;;;5011800;28;20129;-80
2023/10/27 04:23:22;;;;;;;0.38;0.38;;;11.90;99.90;;;;;;5007383;28;20050;-80
2023/10/27 04:25:51;;;;;;;1.20;0.60;;;11.90;99.90;;;;;;5005572;28;20053;-81
2023/10/27 04:28:18;;;;;;;1.80;0.60;;;11.90;99.90;;;;;;5009144;28;20089;-80
2023/10/27 04:30:48;;;;;;;1.75;0.70;;;11.90;99.90;;;;;;5001432;28;20046;-80
2023/10/27 04:33:16;;;;;;;1.50;0.70;;;11.90;99.90;;;;;;5012758;28;20053;-80
2023/10/27 04:35:44;;;;;;;1.25;0.60;;;11.90;99.90;;;;;;5012205;28;20050;-80
2023/10/27 04:38:11;;;;;;;0.95;0.80;;;11.90;99.90;;;;;;5006867;28;20101;-81
2023/10/27 04:40:37;;;;;;;0.63;0.52;;;11.90;99.90;;;;;;5005225;28;20066;-80
2023/10/27 04:43:04;;;;;;;0.80;0.43;;;11.90;99.90;;;;;;5008490;28;20096;-80
2023/10/27 04:45:31;;;;;;;1.55;0.70;;;11.90;99.90;;;;;;5005462;28;20050;-80
2023/10/27 04:47:58;;;;;;;1.23;0.70;;;11.90;99.90;;;;;;5008867;28;20101;-80
2023/10/27 04:50:25;;;;;;;2.65;0.60;;;11.90;99.90;;;;;;5009536;28;20125;-80
2023/10/27 04:52:52;;;;;;;0.55;0.55;;;11.90;99.90;;;;;;5007381;28;20038;-81
2023/10/27 04:55:19;;;;;;;1.80;0.70;;;11.90;99.90;;;;;;5004122;28;20474;-80
2023/10/27 04:57:46;;;;;;;2.60;0.50;;;11.90;99.90;;;;;;5006763;28;20068;-80
2023/10/27 05:00:13;;;;;;;0.45;0.38;;;11.80;99.90;;;;;;5001470;28;20054;-80
2023/10/27 05:02:40;;;;;;;0.47;0.40;;;11.80;99.90;;;;;;5006263;28;20050;-80
2023/10/27 05:05:08;;;;;;;0.38;0.30;;;11.80;99.90;;;;;;5008924;28;20060;-81
2023/10/27 05:07:36;;;;;;;0.77;0.50;;;11.80;99.90;;;;;;5008240;28;20053;-82
2023/10/27 05:10:07;;;;;;;0.70;0.70;;;11.80;99.90;;;;;;4999525;28;20137;-81
2023/10/27 05:12:36;;;;;;;1.77;0.50;;;11.80;99.90;;;;;;5006938;28;20042;-81
2023/10/27 05:15:03;;;;;;;0.55;0.50;;;11.70;99.90;;;;;;5002765;28;20101;-80
2023/10/27 05:17:34;;;;;;;1.25;0.57;;;11.80;99.90;;;;;;5011587;28;20464;-81
2023/10/27 05:20:03;;;;;;;0.40;0.40;;;11.70;99.90;;;;;;5009458;28;20085;-81
2023/10/27 05:22:30;;;;;;;1.80;1.10;;;11.70;99.90;;;;;;5009030;28;20116;-80
2023/10/27 05:25:03;;;;;;;3.33;0.85;;;11.70;99.90;;;;;;5003015;28;20511;-80
2023/10/27 05:27:30;;;;;;;2.38;0.90;;;11.80;99.90;;;;;;5010327;28;20046;-80
2023/10/27 05:29:57;;;;;;;2.53;0.70;;;11.80;99.90;;;;;;5010046;28;20042;-80
2023/10/27 05:32:24;;;;;;;0.65;0.45;;;11.80;99.90;;;;;;5010243;28;20046;-80
2023/10/27 05:34:51;;;;;;;0.75;0.40;;;11.80;99.90;;;;;;5007593;28;20494;-80
2023/10/27 05:37:19;;;;;;;2.17;0.30;;;11.80;99.90;;;;;;5008651;28;20046;-80
2023/10/27 05:39:46;;;;;;;0.38;0.35;;;11.80;99.90;;;;;;5003242;28;20049;-80
2023/10/27 05:42:14;;;;;;;0.32;0.30;;;11.80;99.90;;;;;;5010489;28;20097;-80
2023/10/27 05:44:41;;;;;;;1.05;0.50;;;11.80;99.90;;;;;;5009718;28;20465;-80
2023/10/27 05:47:08;;;;;;;1.92;0.60;;;11.90;99.90;;;;;;5008241;28;20434;-80
2023/10/27 05:49:35;;;;;;;1.27;0.30;;;11.80;99.90;;;;;;5008228;28;20046;-79
2023/10/27 05:52:03;;;;;;;2.17;0.60;;;11.80;99.90;;;;;;5016561;28;20050;-80
2023/10/27 05:54:30;;;;;;;4.25;2.03;;;11.80;99.90;;;;;;5002175;28;20057;-80
2023/10/27 05:56:57;;;;;;;1.85;0.68;;;11.90;99.90;;;;;;5009659;28;20046;-80
2023/10/27 05:59:24;;;;;;;1.40;0.73;;;11.80;99.90;;;;;;5010467;28;20050;-80
2023/10/27 06:01:53;;;;;;;2.70;0.68;;;11.80;99.90;;;;;;5008231;28;20112;-79
2023/10/27 06:04:36;;;;;;;0.40;0.30;;;11.80;99.90;;;;;;5007354;28;20088;-80
2023/10/27 06:07:03;;;;;;;1.65;0.80;;;11.90;99.90;;;;;;5010019;28;20065;-80
2023/10/27 06:09:31;;;;;;;2.85;0.60;;;11.90;99.90;;;;;;5003248;28;20128;-79
2023/10/27 06:11:58;;;;;;;1.23;0.85;;;11.80;99.90;;;;;;5010442;28;20046;-80
2023/10/27 06:14:25;;;;;;;0.40;0.40;;;11.90;99.90;;;;;;5013980;28;20473;-80
2023/10/27 06:16:51;;;;;;;2.20;0.52;;;11.90;99.90;;;;;;5009009;28;20098;-80
2023/10/27 06:19:19;;;;;;;0.68;0.40;;;11.90;99.90;;;;;;5007808;28;20082;-80
2023/10/27 06:21:49;;;;;;;1.85;0.60;;;11.80;99.90;;;;;;5007586;28;20073;-80
2023/10/27 06:24:16;;;;;;;4.63;0.70;;;11.80;99.90;;;;;;5002596;28;20062;-80
2023/10/27 06:26:43;;;;;;;1.60;0.40;;;11.80;99.90;;;;;;5009230;28;20140;-80
2023/10/27 06:29:10;;;;;;;5.18;1.70;;;11.70;99.90;;;;;;5011211;28;20403;-81
2023/10/27 06:31:38;;;;;;;6.82;0.68;;;11.70;99.90;;;;;;5014448;28;20042;-80
2023/10/27 06:34:04;;;;;;;2.22;0.65;;;11.70;99.90;;;;;;5005213;28;20490;-80
2023/10/27 06:36:32;;;;;;;2.00;0.50;;;11.60;99.90;;;;;;5009179;28;20100;-80
2023/10/27 06:39:01;;;;;;;0.90;0.40;;;11.60;99.90;;;;;;5002825;28;20104;-80
2023/10/27 06:41:27;;;;;;;0.88;0.50;;;11.50;99.90;;;;;;5015721;28;20085;-80
2023/10/27 06:43:54;;;;;;;1.65;0.60;;;11.50;99.90;;;;;;5011749;28;20043;-80
2023/10/27 06:46:22;;;;;;;1.70;0.50;;;11.40;99.90;;;;;;5007834;28;20510;-80
2023/10/27 06:48:51;;;;;;;1.52;0.75;;;11.40;99.90;;;;;;5004288;28;20046;-80
2023/10/27 06:51:18;;;;;;;3.45;1.15;;;11.40;99.90;;;;;;5009670;28;20129;-80
2023/10/27 06:53:45;;;;;;;3.13;1.00;;;11.40;99.90;;;;;;5002919;28;20589;-80
2023/10/27 06:56:11;;;;;;;2.22;0.70;;;11.40;99.90;;;;;;5011805;28;20077;-80
2023/10/27 06:58:38;;;;;;;3.20;0.80;;;11.40;99.90;;;;;;5009996;28;20056;-80
2023/10/27 07:01:08;;;;;;;0.98;0.60;;;11.40;99.90;;;;;;5009929;28;20046;-80
2023/10/27 07:03:37;;;;;;;;;;;11.40;99.90;;;;;;5004470;28;20046;-80
2023/10/27 07:06:05;;;;;;;1.90;0.65;;;11.50;99.90;;;;;;5009738;28;20336;-81
2023/10/27 07:08:32;;;;;;;5.18;0.90;;;11.50;99.90;;;;;;5003076;28;20057;-80
2023/10/27 07:10:59;;;;;;;4.03;0.77;;;11.60;99.90;;;;;;5006412;28;20042;-80
2023/10/27 07:13:27;;;;;;;6.25;0.80;;;11.60;99.90;;;;;;5009855;28;20423;-80
2023/10/27 07:15:54;;;;;;;2.28;0.73;;;11.70;99.90;;;;;;5012883;28;20053;-80
2023/10/27 07:18:21;;;;;;;3.88;0.70;;;11.80;99.90;;;;;;5005575;28;20050;-80
2023/10/27 07:20:48;;;;;;;3.25;0.60;;;11.90;99.90;;;;;;5007043;28;20127;-80
2023/10/27 07:23:16;;;;;;;3.15;0.73;;;11.90;99.90;;;;;;5004295;28;20072;-80
2023/10/27 07:25:42;;;;;;;3.75;0.63;;;12.00;99.90;;;;;;5011272;28;20073;-80
2023/10/27 07:28:09;;;;;;;7.43;1.20;;;12.00;99.90;;;;;;5006656;28;20140;-80
2023/10/27 07:30:36;;;;;;;5.30;1.17;;;12.10;99.90;;;;;;5009193;28;20129;-81
2023/10/27 07:33:04;;;;;;;4.35;1.15;;;12.10;99.90;;;;;;5002032;28;20046;-80
2023/10/27 07:35:31;;;;;;;5.90;1.65;;;12.10;99.90;;;;;;5007965;28;20050;-80
2023/10/27 07:37:58;;;;;;;3.25;0.90;;;12.20;99.90;;;;;;5002932;28;20101;-80
2023/10/27 07:40:25;;;;;;;3.05;1.27;;;12.20;99.90;;;;;;5010732;28;20073;-80
2023/10/27 07:42:57;;;;;;;3.65;0.70;;;12.20;99.90;;;;;;5006258;28;20042;-79
2023/10/27 07:45:25;;;;;;;3.42;1.25;;;12.20;99.90;;;;;;5009214;28;20108;-80
2023/10/27 07:47:52;;;;;;;4.72;1.00;;;12.20;99.90;;;;;;5005276;28;20050;-80
2023/10/27 07:50:19;;;;;;;4.15;1.40;;;12.20;99.90;;;;;;5005026;28;20050;-80
2023/10/27 07:52:46;;;;;;;3.40;1.23;;;12.20;99.90;;;;;;5006107;28;20103;-80
2023/10/27 07:55:13;;;;;;;10.68;1.75;;;12.10;99.90;;;;;;5008539;28;20146;-80
2023/10/27 07:57:40;;;;;;;6.90;1.40;;;12.20;99.90;;;;;;5007026;28;20124;-80
2023/10/27 08:00:09;;;;;;;5.05;1.05;;;12.20;99.90;;;;;;5008967;28;20061;-81
2023/10/27 08:02:38;;;;;;;4.25;1.00;;;12.20;99.90;;;;;;5003303;28;20198;-80
2023/10/27 08:05:06;;;;;;;11.63;1.55;;;12.20;99.90;;;;;;5005872;28;20081;-79
2023/10/27 08:07:35;;;;;;;4.30;1.00;;;12.20;99.90;;;;;;5008960;28;20156;-80
2023/10/27 08:10:07;;;;;;;5.10;1.40;;;12.30;99.90;;;;;;5006843;28;20060;-80
2023/10/27 08:12:34;;;;;;;6.55;1.23;;;12.30;99.90;;;;;;5006392;28;20073;-80
2023/10/27 08:15:05;;;;;;;4.03;1.73;;;12.30;99.90;;;;;;5005144;28;20107;-80
2023/10/27 08:17:33;;;;;;;6.95;1.60;;;12.30;99.90;;;;;;5001862;28;20503;-80
2023/10/27 08:20:01;;;;;;;5.68;1.38;;;12.30;99.90;;;;;;5008757;28;20046;-80
2023/10/27 08:22:28;;;;;;;6.28;0.93;;;12.30;99.90;;;;;;5010897;28;20058;-81
2023/10/27 08:24:55;;;;;;;9.70;1.33;;;12.30;99.90;;;;;;5013311;28;20049;-80
2023/10/27 08:27:23;;;;;;;5.00;1.17;;;12.30;99.90;;;;;;5004941;28;20050;-81
2023/10/27 08:29:54;;;;;;;4.80;1.45;;;12.30;99.90;;;;;;5007346;28;20048;-80
2023/10/27 08:32:21;;;;;;;8.43;3.45;;;12.30;99.90;;;;;;5001605;28;20105;-81
2023/10/27 08:34:49;;;;;;;6.43;1.65;;;12.30;99.90;;;;;;5007656;28;20042;-81
2023/10/27 08:37:19;;;;;;;9.60;3.78;;;12.30;99.90;;;;;;5010003;28;20046;-80
2023/10/27 08:39:45;;;;;;;6.55;2.53;;;12.30;99.90;;;;;;5006416;28;20513;-80
2023/10/27 08:42:12;;;;;;;4.68;1.00;;;12.30;99.90;;;;;;5003761;28;20096;-81
2023/10/27 08:44:41;;;;;;;4.50;1.17;;;12.40;99.90;;;;;;5008212;28;20049;-80
2023/10/27 08:47:08;;;;;;;2.63;1.00;;;12.40;99.90;;;;;;5003857;28;20062;-80
2023/10/27 08:49:35;;;;;;;5.88;0.90;;;12.40;99.90;;;;;;5005870;28;20053;-80
2023/10/27 08:52:03;;;;;;;3.65;1.02;;;12.50;99.90;;;;;;5010520;28;20054;-81
2023/10/27 08:54:31;;;;;;;5.70;1.00;;;12.50;99.90;;;;;;5013426;28;20077;-80
2023/10/27 08:56:57;;;;;;;3.08;0.80;;;12.50;99.90;;;;;;5007436;28;20585;-80
2023/10/27 08:59:24;;;;;;;4.72;0.95;;;12.50;99.90;;;;;;5010185;28;20085;-80
2023/10/27 09:01:53;;;;;;;4.85;1.02;;;12.50;99.90;;;;;;5003610;28;20097;-81
2023/10/27 09:04:23;;;;;;;1.20;0.80;;;12.50;99.90;;;;;;5006783;28;20057;-81
2023/10/27 09:06:50;;;;;;;5.93;1.13;;;12.50;99.90;;;;;;5013160;28;20057;-80
2023/10/27 09:09:18;;;;;;;5.03;1.30;;;12.60;99.90;;;;;;5010046;28;20101;-80
2023/10/27 09:11:48;;;;;;;5.70;0.85;;;12.60;99.90;;;;;;5004846;28;20046;-80
2023/10/27 09:14:28;;;;;;;2.80;1.10;;;12.70;99.90;;;;;;5010575;28;20088;-80
2023/10/27 09:17:06;;;;;;;4.75;1.13;;;12.70;99.90;;;;;;5008456;28;20038;-81
2023/10/27 09:19:34;;;;;;;2.90;0.90;;;12.80;99.90;;;;;;5010325;28;20489;-79
2023/10/27 09:22:05;;;;;;;3.10;0.77;;;12.80;99.90;;;;;;5011366;28;20058;-80
2023/10/27 09:24:31;;;;;;;4.68;1.02;;;12.90;99.90;;;;;;5009068;28;20077;-81
2023/10/27 09:27:02;;;;;;;2.53;0.90;;;13.00;99.90;;;;;;5004789;28;20050;-80
2023/10/27 09:29:42;;;;;;;5.03;0.73;;;13.00;99.90;;;;;;5011235;28;20054;-80
2023/10/27 09:32:26;;;;;;;6.43;1.05;;;13.00;99.90;;;;;;5004330;28;20060;-80
2023/10/27 09:35:08;;;;;;;5.85;1.00;;;13.00;99.90;;;;;;5012025;28;20049;-80
2023/10/27 09:37:37;;;;;;;2.05;0.75;;;13.00;99.90;;;;;;5012581;28;20050;-80
2023/10/27 09:40:08;;;;;;;3.17;0.80;;;13.10;99.90;;;;;;5012560;28;20061;-80
2023/10/27 09:42:37;;;;;;;1.90;0.80;;;13.10;99.90;;;;;;5006829;28;20065;-80
2023/10/27 09:45:08;;;;;;;2.50;0.77;;;13.20;99.90;;;;;;5010928;28;20050;-80
2023/10/27 09:47:47;;;;;;;1.38;0.50;;;13.20;99.90;;;;;;5011102;28;20469;-80
2023/10/27 09:50:22;;;;;;;2.35;0.63;;;13.30;99.90;;;;;;5012194;28;20536;-80
2023/10/27 09:52:49;;;;;;;2.95;0.60;;;13.40;99.90;;;;;;5011101;28;20049;-80
2023/10/27 09:55:18;;;;;;;1.48;0.50;;;13.40;99.90;;;;;;5007017;28;20053;-80
2023/10/27 09:57:45;;;;;;;1.55;0.52;;;13.50;99.90;;;;;;5006620;28;20042;-80
2023/10/27 10:00:15;;;;;;;3.00;0.68;;;13.50;99.90;;;;;;5007706;28;20050;-80
2023/10/27 10:02:43;;;;;;;2.55;0.60;;;13.50;99.90;;;;;;5016668;28;20498;-80
2023/10/27 10:05:11;;;;;;;2.22;0.70;;;13.50;99.90;;;;;;5006383;28;20078;-81
2023/10/27 10:07:54;;;;;;;2.25;0.70;;;13.60;99.90;;;;;;5010441;28;20117;-80
2023/10/27 10:10:35;;;;;;;2.15;0.60;;;13.60;99.90;;;;;;5005385;28;20046;-80
2023/10/27 10:13:06;;;;;;;3.05;0.88;;;13.70;99.90;;;;;;5005016;28;20052;-80
2023/10/27 10:15:37;;;;;;;1.45;0.60;;;13.70;99.90;;;;;;5008429;28;20104;-81
2023/10/27 10:18:06;;;;;;;4.55;0.82;;;13.70;99.90;;;;;;5013835;28;20072;-81
2023/10/27 10:20:43;;;;;;;3.35;0.50;;;13.70;99.90;;;;;;5007329;28;20050;-80
2023/10/27 10:23:11;;;;;;;1.38;0.60;;;13.70;99.90;;;;;;5007975;28;20050;-80
2023/10/27 10:25:51;;;;;;;2.78;0.60;;;13.80;99.90;;;;;;5005609;28;20046;-80
2023/10/27 10:28:18;;;;;;;0.93;0.50;;;13.80;99.90;;;;;;5006583;28;20056;-80
2023/10/27 10:31:09;;;;;;;2.55;0.50;;;13.80;99.90;;;;;;5012686;28;20050;-81
2023/10/27 10:33:40;;;;;;;4.43;0.77;;;13.90;99.90;;;;;;5012734;28;20057;-80
2023/10/27 10:36:14;;;;;;;2.60;0.55;;;13.80;99.90;;;;;;5005427;28;20052;-81
2023/10/27 10:38:43;;;;;;;2.58;0.52;;;13.90;99.90;;;;;;5009381;28;20085;-81
2023/10/27 10:41:10;;;;;;;2.05;0.65;;;13.90;99.90;;;;;;5001849;28;20050;-81
2023/10/27 10:43:37;;;;;;;4.45;0.63;;;13.90;99.90;;;;;;5012662;28;20093;-80
2023/10/27 10:46:06;;;;;;;2.80;0.77;;;13.90;99.90;;;;;;5011398;28;20053;-81
2023/10/27 10:48:35;;;;;;;1.30;0.60;;;13.90;99.90;;;;;;5007265;28;20573;-80
2023/10/27 10:51:15;;;;;;;0.73;0.55;;;13.90;99.90;;;;;;5007182;28;20046;-80
2023/10/27 10:53:55;;;;;;;3.03;0.73;;;13.80;99.90;;;;;;5010642;28;20043;-80
2023/10/27 10:56:24;;;;;;;2.65;0.88;;;13.70;99.90;;;;;;5002666;28;20105;-81
2023/10/27 10:58:50;;;;;;;2.58;0.60;;;13.70;99.90;;;;;;5013893;28;20390;-80
2023/10/27 11:01:20;;;;;;;2.03;0.50;;;13.70;99.90;;;;;;5011290;28;20050;-80
2023/10/27 11:03:49;;;;;;;3.45;0.60;;;13.70;99.90;;;;;;5008049;28;20046;-81
2023/10/27 11:06:19;;;;;;;1.23;0.57;;;13.70;99.90;;;;;;5006639;28;20046;-80
2023/10/27 11:08:46;;;;;;;1.70;0.60;;;13.70;99.90;;;;;;5009832;28;20042;-81
2023/10/27 11:11:14;;;;;;;3.53;0.80;;;13.70;99.90;;;;;;5000598;28;20073;-80
2023/10/27 11:13:43;;;;;;;3.80;0.73;;;13.80;99.90;;;;;;5010907;28;20096;-80
2023/10/27 11:16:23;;;;;;;1.70;0.57;;;13.90;99.90;;;;;;5009891;28;20418;-81
2023/10/27 11:18:59;;;;;;;4.30;0.75;;;14.00;99.90;;;;;;5007447;28;20046;-80
2023/10/27 11:21:29;;;;;;;3.15;0.80;;;14.00;99.90;;;;;;5002302;28;20125;-80
2023/10/27 11:23:56;;;;;;;1.77;0.80;;;14.10;99.90;;;;;;5007352;28;20042;-80
2023/10/27 11:26:25;;;;;;;4.97;1.50;;;14.20;99.90;;;;;;4999339;28;20056;-80
2023/10/27 11:28:55;;;;;;;3.50;1.33;;;14.20;99.90;;;;;;5008435;28;20129;-80
2023/10/27 11:31:22;;;;;;;;;;;14.30;99.90;;;;;;5008633;28;20519;-79
2023/10/27 11:34:03;;;;;;;4.32;1.20;;;14.30;99.90;;;;;;5006013;28;19922;-80
2023/10/27 11:36:33;;;;;;;4.45;0.85;;;14.30;99.90;;;;;;5003693;28;20414;-80
2023/10/27 11:39:23;;;;;;;3.83;0.80;;;14.40;99.90;;;;;;5008001;28;20037;-80
2023/10/27 11:42:03;;;;;;;4.57;0.80;;;14.40;99.90;;;;;;5010088;28;20089;-80
2023/10/27 11:44:35;;;;;;;1.65;0.60;;;14.30;99.90;;;;;;5007800;28;20136;-80
2023/10/27 11:47:02;;;;;;;3.75;0.50;;;14.20;99.90;;;;;;5010974;28;20048;-81
2023/10/27 11:49:30;;;;;;;2.72;1.02;;;14.10;99.90;;;;;;5003399;28;20100;-79
2023/10/27 11:51:57;;;;;;;2.55;0.70;;;14.00;99.90;;;;;;5004290;28;20077;-80
2023/10/27 11:54:26;;;;;;;1.83;0.60;;;13.90;99.90;;;;;;5006288;28;20058;-80
2023/10/27 11:56:53;;;;;;;3.00;0.60;;;13.90;99.90;;;;;;5015080;28;20076;-80
2023/10/27 11:59:24;;;;;;;1.92;0.73;;;13.90;99.90;;;;;;5007098;28;20054;-80
2023/10/27 12:01:52;;;;;;;3.80;1.00;;;14.00;99.90;;;;;;5010185;28;20078;-80
2023/10/27 12:04:19;;;;;;;3.53;0.80;;;14.00;99.90;;;;;;5001344;28;20054;-79
2023/10/27 12:06:46;;;;;;;3.42;0.60;;;14.00;99.90;;;;;;5008229;28;20089;-80
2023/10/27 12:09:13;;;;;;;8.07;0.80;;;14.10;99.90;;;;;;5006403;28;20046;-79
2023/10/27 12:11:43;;;;;;;2.90;0.85;;;14.10;99.90;;;;;;5009744;28;20077;-80
2023/10/27 12:14:12;;;;;;;3.75;0.90;;;14.20;99.90;;;;;;5006161;28;20050;-80
2023/10/27 12:16:41;;;;;;;2.55;0.73;;;14.30;99.90;;;;;;5008133;28;20398;-79
2023/10/27 12:19:13;;;;;;;1.30;0.77;;;14.30;99.90;;;;;;5003172;28;20056;-80
2023/10/27 12:21:40;;;;;;;2.25;0.63;;;14.50;99.90;;;;;;5006690;28;20412;-80
2023/10/27 12:24:08;;;;;;;4.35;0.80;;;14.50;99.90;;;;;;5008288;28;20461;-80
2023/10/27 12:26:35;;;;;;;2.20;0.77;;;14.70;99.90;;;;;;5007002;28;20046;-80
2023/10/27 12:29:04;;;;;;;1.92;0.73;;;14.70;99.90;;;;;;5005749;28;20555;-79
2023/10/27 12:31:32;;;;;;;3.25;0.68;;;14.80;99.90;;;;;;5006979;28;20054;-80
2023/10/27 12:33:59;;;;;;;3.83;1.08;;;14.90;99.90;;;;;;5008782;28;20046;-79
2023/10/27 12:36:26;;;;;;;4.22;0.90;;;15.00;99.90;;;;;;5008133;28;20129;-80
2023/10/27 12:38:53;;;;;;;2.60;0.80;;;15.00;99.90;;;;;;5005676;28;20070;-80
2023/10/27 12:41:19;;;;;;;3.58;1.35;;;15.00;99.90;;;;;;5006477;28;20100;-80
2023/10/27 12:43:46;;;;;;;4.70;0.90;;;15.00;99.90;;;;;;5008775;28;20049;-80
2023/10/27 12:46:13;;;;;;;1.05;0.50;;;15.00;99.90;;;;;;5007111;28;20453;-80
2023/10/27 12:48:40;;;;;;;1.27;0.60;;;15.00;99.90;;;;;;5006271;28;20061;-80
2023/10/27 12:51:07;;;;;;;2.00;0.52;;;15.00;99.90;;;;;;5005776;28;20049;-79
2023/10/27 12:53:33;;;;;;;4.25;0.85;;;14.90;99.90;;;;;;5010966;28;20050;-80